sensor_id;sensor_type;location;lat;lon;timestamp;P1;durP1;ratioP1;P2;durP2;ratioP2
66521;SDS011;53349;53.538;8.584;2022-08-21T00:00:45;5.63;;;2.43;;
66521;SDS011;53349;53.538;8.584;2022-08-21T00:03:11;7.57;;;2.50;;
66521;SDS011;53349;53.538;8.584;2022-08-21T00:05:38;5.93;;;2.70;;
66521;SDS011;53349;53.538;8.584;2022-08-21T00:08:08;4.55;;;2.10;;
66521;SDS011;53349;53.538;8.584;2022-08-21T00:10:33;5.97;;;2.37;;
66521;SDS011;53349;53.538;8.584;2022-08-21T00:13:00;5.20;;;2.40;;
66521;SDS011;53349;53.538;8.584;2022-08-21T00:15:27;7.63;;;2.70;;
66521;SDS011;53349;53.538;8.584;2022-08-21T00:17:55;6.50;;;2.60;;
66521;SDS011;53349;53.538;8.584;2022-08-21T00:20:21;7.63;;;2.70;;
66521;SDS011;53349;53.538;8.584;2022-08-21T00:22:47;4.82;;;2.15;;
66521;SDS011;53349;53.538;8.584;2022-08-21T00:25:13;5.07;;;2.20;;
66521;SDS011;53349;53.538;8.584;2022-08-21T00:27:40;5.68;;;2.35;;
66521;SDS011;53349;53.538;8.584;2022-08-21T00:30:11;5.25;;;2.20;;
66521;SDS011;53349;53.538;8.584;2022-08-21T00:32:40;8.45;;;2.40;;
66521;SDS011;53349;53.538;8.584;2022-08-21T00:35:07;4.83;;;2.40;;
66521;SDS011;53349;53.538;8.584;2022-08-21T00:37:36;6.88;;;2.15;;
66521;SDS011;53349;53.538;8.584;2022-08-21T00:40:03;6.45;;;2.88;;
66521;SDS011;53349;53.538;8.584;2022-08-21T00:42:29;6.00;;;2.22;;
66521;SDS011;53349;53.538;8.584;2022-08-21T00:44:55;7.80;;;2.20;;
66521;SDS011;53349;53.538;8.584;2022-08-21T00:47:21;6.03;;;2.40;;
66521;SDS011;53349;53.538;8.584;2022-08-21T00:49:46;5.82;;;2.35;;
66521;SDS011;53349;53.538;8.584;2022-08-21T00:52:14;5.37;;;2.10;;
66521;SDS011;53349;53.538;8.584;2022-08-21T00:54:43;5.07;;;2.00;;
66521;SDS011;53349;53.538;8.584;2022-08-21T00:57:17;5.95;;;2.40;;
66521;SDS011;53349;53.538;8.584;2022-08-21T00:59:47;9.82;;;2.70;;
66521;SDS011;53349;53.538;8.584;2022-08-21T01:02:16;8.13;;;2.45;;
66521;SDS011;53349;53.538;8.584;2022-08-21T01:04:43;6.03;;;2.00;;
66521;SDS011;53349;53.538;8.584;2022-08-21T01:07:08;5.75;;;1.95;;
66521;SDS011;53349;53.538;8.584;2022-08-21T01:09:35;7.30;;;2.40;;
66521;SDS011;53349;53.538;8.584;2022-08-21T01:12:01;4.93;;;2.00;;
66521;SDS011;53349;53.538;8.584;2022-08-21T01:14:27;5.00;;;2.25;;
66521;SDS011;53349;53.538;8.584;2022-08-21T01:16:53;7.35;;;2.40;;
66521;SDS011;53349;53.538;8.584;2022-08-21T01:19:21;7.03;;;2.33;;
66521;SDS011;53349;53.538;8.584;2022-08-21T01:21:47;5.97;;;2.50;;
66521;SDS011;53349;53.538;8.584;2022-08-21T01:24:13;5.97;;;2.17;;
66521;SDS011;53349;53.538;8.584;2022-08-21T01:26:39;7.70;;;2.40;;
66521;SDS011;53349;53.538;8.584;2022-08-21T01:29:11;5.22;;;2.20;;
66521;SDS011;53349;53.538;8.584;2022-08-21T01:31:41;8.25;;;2.53;;
66521;SDS011;53349;53.538;8.584;2022-08-21T01:34:07;4.93;;;2.80;;
66521;SDS011;53349;53.538;8.584;2022-08-21T01:36:34;6.28;;;2.75;;
66521;SDS011;53349;53.538;8.584;2022-08-21T01:39:00;4.57;;;1.95;;
66521;SDS011;53349;53.538;8.584;2022-08-21T01:41:26;8.60;;;2.72;;
66521;SDS011;53349;53.538;8.584;2022-08-21T01:43:54;9.53;;;2.73;;
66521;SDS011;53349;53.538;8.584;2022-08-21T01:46:19;6.35;;;2.45;;
66521;SDS011;53349;53.538;8.584;2022-08-21T01:48:45;5.03;;;2.57;;
66521;SDS011;53349;53.538;8.584;2022-08-21T01:51:10;5.90;;;2.03;;
66521;SDS011;53349;53.538;8.584;2022-08-21T01:53:37;5.22;;;2.22;;
66521;SDS011;53349;53.538;8.584;2022-08-21T01:56:03;5.28;;;2.55;;
66521;SDS011;53349;53.538;8.584;2022-08-21T01:58:31;6.43;;;2.58;;
66521;SDS011;53349;53.538;8.584;2022-08-21T02:00:56;6.07;;;2.40;;
66521;SDS011;53349;53.538;8.584;2022-08-21T02:03:21;7.00;;;2.40;;
66521;SDS011;53349;53.538;8.584;2022-08-21T02:05:47;7.70;;;2.33;;
66521;SDS011;53349;53.538;8.584;2022-08-21T02:08:12;4.80;;;2.42;;
66521;SDS011;53349;53.538;8.584;2022-08-21T02:10:38;5.33;;;2.40;;
66521;SDS011;53349;53.538;8.584;2022-08-21T02:13:04;6.03;;;2.20;;
66521;SDS011;53349;53.538;8.584;2022-08-21T02:15:29;6.45;;;2.38;;
66521;SDS011;53349;53.538;8.584;2022-08-21T02:17:57;6.27;;;2.20;;
66521;SDS011;53349;53.538;8.584;2022-08-21T02:20:32;5.82;;;2.40;;
66521;SDS011;53349;53.538;8.584;2022-08-21T02:23:00;5.57;;;2.15;;
66521;SDS011;53349;53.538;8.584;2022-08-21T02:25:26;5.37;;;2.10;;
66521;SDS011;53349;53.538;8.584;2022-08-21T02:27:52;4.27;;;2.10;;
66521;SDS011;53349;53.538;8.584;2022-08-21T02:30:22;6.00;;;2.28;;
66521;SDS011;53349;53.538;8.584;2022-08-21T02:32:51;4.78;;;2.10;;
66521;SDS011;53349;53.538;8.584;2022-08-21T02:35:16;6.90;;;2.20;;
66521;SDS011;53349;53.538;8.584;2022-08-21T02:37:56;7.05;;;2.20;;
66521;SDS011;53349;53.538;8.584;2022-08-21T02:40:25;6.63;;;2.15;;
66521;SDS011;53349;53.538;8.584;2022-08-21T02:42:53;6.20;;;2.28;;
66521;SDS011;53349;53.538;8.584;2022-08-21T02:45:18;6.30;;;2.20;;
66521;SDS011;53349;53.538;8.584;2022-08-21T02:47:54;7.93;;;2.70;;
66521;SDS011;53349;53.538;8.584;2022-08-21T02:50:25;5.57;;;2.15;;
66521;SDS011;53349;53.538;8.584;2022-08-21T02:52:53;6.53;;;2.40;;
66521;SDS011;53349;53.538;8.584;2022-08-21T02:55:19;7.20;;;2.70;;
66521;SDS011;53349;53.538;8.584;2022-08-21T02:57:46;11.83;;;2.87;;
66521;SDS011;53349;53.538;8.584;2022-08-21T03:00:12;8.18;;;2.80;;
66521;SDS011;53349;53.538;8.584;2022-08-21T03:02:39;6.18;;;2.75;;
66521;SDS011;53349;53.538;8.584;2022-08-21T03:05:06;7.88;;;2.80;;
66521;SDS011;53349;53.538;8.584;2022-08-21T03:07:33;7.95;;;2.85;;
66521;SDS011;53349;53.538;8.584;2022-08-21T03:10:00;8.23;;;3.07;;
66521;SDS011;53349;53.538;8.584;2022-08-21T03:12:27;6.43;;;2.60;;
66521;SDS011;53349;53.538;8.584;2022-08-21T03:14:52;6.82;;;3.10;;
66521;SDS011;53349;53.538;8.584;2022-08-21T03:17:17;8.63;;;3.23;;
66521;SDS011;53349;53.538;8.584;2022-08-21T03:19:43;12.10;;;3.70;;
66521;SDS011;53349;53.538;8.584;2022-08-21T03:22:08;8.37;;;3.33;;
66521;SDS011;53349;53.538;8.584;2022-08-21T03:24:34;10.93;;;3.27;;
66521;SDS011;53349;53.538;8.584;2022-08-21T03:26:59;10.32;;;3.30;;
66521;SDS011;53349;53.538;8.584;2022-08-21T03:29:25;7.83;;;3.10;;
66521;SDS011;53349;53.538;8.584;2022-08-21T03:31:50;7.80;;;3.00;;
66521;SDS011;53349;53.538;8.584;2022-08-21T03:34:17;8.15;;;3.20;;
66521;SDS011;53349;53.538;8.584;2022-08-21T03:36:42;4.87;;;2.40;;
66521;SDS011;53349;53.538;8.584;2022-08-21T03:39:08;5.13;;;2.47;;
66521;SDS011;53349;53.538;8.584;2022-08-21T03:41:33;7.47;;;2.50;;
66521;SDS011;53349;53.538;8.584;2022-08-21T03:43:59;9.80;;;2.73;;
66521;SDS011;53349;53.538;8.584;2022-08-21T03:46:24;7.07;;;2.80;;
66521;SDS011;53349;53.538;8.584;2022-08-21T03:48:49;4.83;;;2.60;;
66521;SDS011;53349;53.538;8.584;2022-08-21T03:51:15;8.50;;;2.65;;
66521;SDS011;53349;53.538;8.584;2022-08-21T03:53:40;5.37;;;2.60;;
66521;SDS011;53349;53.538;8.584;2022-08-21T03:56:06;7.77;;;2.87;;
66521;SDS011;53349;53.538;8.584;2022-08-21T03:58:31;5.97;;;2.63;;
66521;SDS011;53349;53.538;8.584;2022-08-21T04:00:58;6.40;;;2.90;;
66521;SDS011;53349;53.538;8.584;2022-08-21T04:03:26;5.50;;;2.30;;
66521;SDS011;53349;53.538;8.584;2022-08-21T04:05:51;7.70;;;2.60;;
66521;SDS011;53349;53.538;8.584;2022-08-21T04:08:17;6.13;;;2.70;;
66521;SDS011;53349;53.538;8.584;2022-08-21T04:10:44;5.68;;;2.50;;
66521;SDS011;53349;53.538;8.584;2022-08-21T04:13:11;9.50;;;2.90;;
66521;SDS011;53349;53.538;8.584;2022-08-21T04:15:37;5.50;;;2.83;;
66521;SDS011;53349;53.538;8.584;2022-08-21T04:18:02;7.80;;;2.87;;
66521;SDS011;53349;53.538;8.584;2022-08-21T04:20:28;8.45;;;3.03;;
66521;SDS011;53349;53.538;8.584;2022-08-21T04:22:54;7.17;;;3.13;;
66521;SDS011;53349;53.538;8.584;2022-08-21T04:25:21;7.28;;;3.17;;
66521;SDS011;53349;53.538;8.584;2022-08-21T04:27:53;6.93;;;2.80;;
66521;SDS011;53349;53.538;8.584;2022-08-21T04:30:18;7.90;;;3.13;;
66521;SDS011;53349;53.538;8.584;2022-08-21T04:32:47;9.67;;;2.83;;
66521;SDS011;53349;53.538;8.584;2022-08-21T04:35:15;9.00;;;3.55;;
66521;SDS011;53349;53.538;8.584;2022-08-21T04:37:43;10.05;;;3.92;;
66521;SDS011;53349;53.538;8.584;2022-08-21T04:40:09;11.40;;;3.67;;
66521;SDS011;53349;53.538;8.584;2022-08-21T04:42:41;7.75;;;3.60;;
66521;SDS011;53349;53.538;8.584;2022-08-21T04:45:18;9.63;;;3.78;;
66521;SDS011;53349;53.538;8.584;2022-08-21T04:47:51;9.30;;;3.30;;
66521;SDS011;53349;53.538;8.584;2022-08-21T04:50:19;8.43;;;3.53;;
66521;SDS011;53349;53.538;8.584;2022-08-21T04:52:47;8.47;;;3.80;;
66521;SDS011;53349;53.538;8.584;2022-08-21T04:55:13;11.18;;;3.88;;
66521;SDS011;53349;53.538;8.584;2022-08-21T04:57:39;7.10;;;3.60;;
66521;SDS011;53349;53.538;8.584;2022-08-21T05:00:05;8.53;;;3.60;;
66521;SDS011;53349;53.538;8.584;2022-08-21T05:02:31;9.23;;;3.60;;
66521;SDS011;53349;53.538;8.584;2022-08-21T05:04:58;8.85;;;3.88;;
66521;SDS011;53349;53.538;8.584;2022-08-21T05:07:26;11.65;;;3.70;;
66521;SDS011;53349;53.538;8.584;2022-08-21T05:09:54;10.60;;;3.58;;
66521;SDS011;53349;53.538;8.584;2022-08-21T05:12:20;9.07;;;3.70;;
66521;SDS011;53349;53.538;8.584;2022-08-21T05:14:46;7.13;;;3.70;;
66521;SDS011;53349;53.538;8.584;2022-08-21T05:17:12;6.60;;;3.33;;
66521;SDS011;53349;53.538;8.584;2022-08-21T05:19:37;8.68;;;4.18;;
66521;SDS011;53349;53.538;8.584;2022-08-21T05:22:03;10.43;;;4.87;;
66521;SDS011;53349;53.538;8.584;2022-08-21T05:24:28;8.40;;;4.37;;
66521;SDS011;53349;53.538;8.584;2022-08-21T05:26:54;9.23;;;4.30;;
66521;SDS011;53349;53.538;8.584;2022-08-21T05:29:19;6.80;;;3.85;;
66521;SDS011;53349;53.538;8.584;2022-08-21T05:31:45;9.90;;;4.13;;
66521;SDS011;53349;53.538;8.584;2022-08-21T05:34:12;9.75;;;4.40;;
66521;SDS011;53349;53.538;8.584;2022-08-21T05:36:39;9.10;;;4.13;;
66521;SDS011;53349;53.538;8.584;2022-08-21T05:39:04;8.77;;;4.20;;
66521;SDS011;53349;53.538;8.584;2022-08-21T05:41:29;9.57;;;4.03;;
66521;SDS011;53349;53.538;8.584;2022-08-21T05:43:55;9.37;;;4.40;;
66521;SDS011;53349;53.538;8.584;2022-08-21T05:46:20;10.32;;;4.57;;
66521;SDS011;53349;53.538;8.584;2022-08-21T05:48:45;8.80;;;4.53;;
66521;SDS011;53349;53.538;8.584;2022-08-21T05:51:13;10.80;;;4.70;;
66521;SDS011;53349;53.538;8.584;2022-08-21T05:53:40;7.95;;;4.65;;
66521;SDS011;53349;53.538;8.584;2022-08-21T05:56:07;11.03;;;4.30;;
66521;SDS011;53349;53.538;8.584;2022-08-21T05:58:33;9.43;;;4.20;;
66521;SDS011;53349;53.538;8.584;2022-08-21T06:00:59;8.73;;;4.50;;
66521;SDS011;53349;53.538;8.584;2022-08-21T06:03:28;9.15;;;4.80;;
66521;SDS011;53349;53.538;8.584;2022-08-21T06:05:55;9.13;;;4.85;;
66521;SDS011;53349;53.538;8.584;2022-08-21T06:08:21;12.30;;;5.40;;
66521;SDS011;53349;53.538;8.584;2022-08-21T06:10:48;10.10;;;4.88;;
66521;SDS011;53349;53.538;8.584;2022-08-21T06:13:15;10.75;;;4.78;;
66521;SDS011;53349;53.538;8.584;2022-08-21T06:15:41;8.93;;;4.30;;
66521;SDS011;53349;53.538;8.584;2022-08-21T06:18:07;10.33;;;4.80;;
66521;SDS011;53349;53.538;8.584;2022-08-21T06:20:32;8.73;;;4.63;;
66521;SDS011;53349;53.538;8.584;2022-08-21T06:22:58;10.27;;;5.00;;
66521;SDS011;53349;53.538;8.584;2022-08-21T06:25:24;9.53;;;4.70;;
66521;SDS011;53349;53.538;8.584;2022-08-21T06:27:50;7.60;;;4.10;;
66521;SDS011;53349;53.538;8.584;2022-08-21T06:30:16;7.03;;;4.22;;
66521;SDS011;53349;53.538;8.584;2022-08-21T06:32:42;7.50;;;3.93;;
66521;SDS011;53349;53.538;8.584;2022-08-21T06:35:07;7.82;;;4.50;;
66521;SDS011;53349;53.538;8.584;2022-08-21T06:37:33;9.50;;;4.47;;
66521;SDS011;53349;53.538;8.584;2022-08-21T06:39:58;10.00;;;4.17;;
66521;SDS011;53349;53.538;8.584;2022-08-21T06:42:24;8.23;;;4.03;;
66521;SDS011;53349;53.538;8.584;2022-08-21T06:44:49;8.63;;;4.03;;
66521;SDS011;53349;53.538;8.584;2022-08-21T06:47:14;7.50;;;3.87;;
66521;SDS011;53349;53.538;8.584;2022-08-21T06:49:40;8.37;;;3.90;;
66521;SDS011;53349;53.538;8.584;2022-08-21T06:52:10;9.20;;;3.70;;
66521;SDS011;53349;53.538;8.584;2022-08-21T06:54:37;6.67;;;3.33;;
66521;SDS011;53349;53.538;8.584;2022-08-21T06:57:03;10.00;;;3.67;;
66521;SDS011;53349;53.538;8.584;2022-08-21T06:59:29;7.87;;;3.77;;
66521;SDS011;53349;53.538;8.584;2022-08-21T07:01:55;9.90;;;3.70;;
66521;SDS011;53349;53.538;8.584;2022-08-21T07:04:20;7.80;;;4.00;;
66521;SDS011;53349;53.538;8.584;2022-08-21T07:06:45;9.55;;;4.18;;
66521;SDS011;53349;53.538;8.584;2022-08-21T07:09:11;9.57;;;3.80;;
66521;SDS011;53349;53.538;8.584;2022-08-21T07:11:36;9.83;;;3.57;;
66521;SDS011;53349;53.538;8.584;2022-08-21T07:14:03;8.30;;;3.00;;
66521;SDS011;53349;53.538;8.584;2022-08-21T07:16:29;9.00;;;3.60;;
66521;SDS011;53349;53.538;8.584;2022-08-21T07:18:54;8.45;;;3.30;;
66521;SDS011;53349;53.538;8.584;2022-08-21T07:21:20;6.93;;;3.27;;
66521;SDS011;53349;53.538;8.584;2022-08-21T07:23:47;6.85;;;3.22;;
66521;SDS011;53349;53.538;8.584;2022-08-21T07:26:16;8.00;;;3.50;;
66521;SDS011;53349;53.538;8.584;2022-08-21T07:28:46;6.35;;;3.50;;
66521;SDS011;53349;53.538;8.584;2022-08-21T07:31:14;6.93;;;2.95;;
66521;SDS011;53349;53.538;8.584;2022-08-21T07:33:41;5.97;;;2.80;;
66521;SDS011;53349;53.538;8.584;2022-08-21T07:36:07;6.50;;;2.80;;
66521;SDS011;53349;53.538;8.584;2022-08-21T07:38:33;7.13;;;2.40;;
66521;SDS011;53349;53.538;8.584;2022-08-21T07:40:59;4.68;;;1.95;;
66521;SDS011;53349;53.538;8.584;2022-08-21T07:43:29;5.63;;;2.13;;
66521;SDS011;53349;53.538;8.584;2022-08-21T07:45:55;6.63;;;2.08;;
66521;SDS011;53349;53.538;8.584;2022-08-21T07:48:21;6.43;;;2.43;;
66521;SDS011;53349;53.538;8.584;2022-08-21T07:50:47;5.35;;;2.35;;
66521;SDS011;53349;53.538;8.584;2022-08-21T07:53:12;7.43;;;2.65;;
66521;SDS011;53349;53.538;8.584;2022-08-21T07:55:38;5.23;;;2.00;;
66521;SDS011;53349;53.538;8.584;2022-08-21T07:58:03;7.53;;;2.37;;
66521;SDS011;53349;53.538;8.584;2022-08-21T08:00:29;8.48;;;2.10;;
66521;SDS011;53349;53.538;8.584;2022-08-21T08:02:55;5.97;;;2.37;;
66521;SDS011;53349;53.538;8.584;2022-08-21T08:05:23;8.30;;;2.20;;
66521;SDS011;53349;53.538;8.584;2022-08-21T08:07:51;7.25;;;2.13;;
66521;SDS011;53349;53.538;8.584;2022-08-21T08:10:16;5.30;;;1.90;;
66521;SDS011;53349;53.538;8.584;2022-08-21T08:12:42;7.30;;;2.10;;
66521;SDS011;53349;53.538;8.584;2022-08-21T08:15:10;6.30;;;2.00;;
66521;SDS011;53349;53.538;8.584;2022-08-21T08:17:44;6.00;;;2.33;;
66521;SDS011;53349;53.538;8.584;2022-08-21T08:20:11;7.22;;;2.40;;
66521;SDS011;53349;53.538;8.584;2022-08-21T08:22:38;5.30;;;1.58;;
66521;SDS011;53349;53.538;8.584;2022-08-21T08:25:05;4.80;;;2.22;;
66521;SDS011;53349;53.538;8.584;2022-08-21T08:27:32;6.07;;;2.10;;
66521;SDS011;53349;53.538;8.584;2022-08-21T08:29:58;6.27;;;2.27;;
66521;SDS011;53349;53.538;8.584;2022-08-21T08:32:23;5.78;;;2.10;;
66521;SDS011;53349;53.538;8.584;2022-08-21T08:34:49;4.30;;;2.00;;
66521;SDS011;53349;53.538;8.584;2022-08-21T08:37:16;7.07;;;2.45;;
66521;SDS011;53349;53.538;8.584;2022-08-21T08:39:43;7.55;;;2.20;;
66521;SDS011;53349;53.538;8.584;2022-08-21T08:42:16;6.60;;;2.00;;
66521;SDS011;53349;53.538;8.584;2022-08-21T08:44:49;5.70;;;1.73;;
66521;SDS011;53349;53.538;8.584;2022-08-21T08:47:24;8.88;;;2.20;;
66521;SDS011;53349;53.538;8.584;2022-08-21T08:52:35;5.95;;;1.80;;
66521;SDS011;53349;53.538;8.584;2022-08-21T08:57:46;7.97;;;2.05;;
66521;SDS011;53349;53.538;8.584;2022-08-21T09:00:13;8.48;;;2.15;;
66521;SDS011;53349;53.538;8.584;2022-08-21T09:02:43;6.72;;;1.75;;
66521;SDS011;53349;53.538;8.584;2022-08-21T09:05:23;6.85;;;1.70;;
66521;SDS011;53349;53.538;8.584;2022-08-21T09:07:57;6.47;;;1.80;;
66521;SDS011;53349;53.538;8.584;2022-08-21T09:13:36;5.72;;;2.20;;
66521;SDS011;53349;53.538;8.584;2022-08-21T09:16:12;8.07;;;1.90;;
66521;SDS011;53349;53.538;8.584;2022-08-21T09:25:31;4.30;;;1.70;;
66521;SDS011;53349;53.538;8.584;2022-08-21T09:27:59;5.68;;;1.40;;
66521;SDS011;53349;53.538;8.584;2022-08-21T09:30:26;6.20;;;1.63;;
66521;SDS011;53349;53.538;8.584;2022-08-21T09:32:55;6.10;;;1.70;;
66521;SDS011;53349;53.538;8.584;2022-08-21T09:35:22;5.15;;;1.63;;
66521;SDS011;53349;53.538;8.584;2022-08-21T09:40:37;6.23;;;1.70;;
66521;SDS011;53349;53.538;8.584;2022-08-21T09:45:36;6.78;;;1.50;;
66521;SDS011;53349;53.538;8.584;2022-08-21T09:48:09;7.18;;;1.60;;
66521;SDS011;53349;53.538;8.584;2022-08-21T09:50:40;6.90;;;1.52;;
66521;SDS011;53349;53.538;8.584;2022-08-21T09:53:14;5.33;;;1.30;;
66521;SDS011;53349;53.538;8.584;2022-08-21T09:55:48;6.90;;;1.40;;
66521;SDS011;53349;53.538;8.584;2022-08-21T09:58:37;5.80;;;1.15;;
66521;SDS011;53349;53.538;8.584;2022-08-21T10:01:06;4.18;;;1.20;;
66521;SDS011;53349;53.538;8.584;2022-08-21T10:03:40;4.13;;;1.20;;
66521;SDS011;53349;53.538;8.584;2022-08-21T10:06:07;6.30;;;1.47;;
66521;SDS011;53349;53.538;8.584;2022-08-21T10:08:40;4.05;;;1.38;;
66521;SDS011;53349;53.538;8.584;2022-08-21T10:11:12;6.60;;;1.67;;
66521;SDS011;53349;53.538;8.584;2022-08-21T10:13:54;5.32;;;1.23;;
66521;SDS011;53349;53.538;8.584;2022-08-21T10:22:34;4.55;;;1.40;;
66521;SDS011;53349;53.538;8.584;2022-08-21T10:25:23;4.37;;;1.33;;
66521;SDS011;53349;53.538;8.584;2022-08-21T10:28:12;2.67;;;1.10;;
66521;SDS011;53349;53.538;8.584;2022-08-21T10:30:57;4.53;;;1.40;;
66521;SDS011;53349;53.538;8.584;2022-08-21T10:35:56;4.90;;;1.70;;
66521;SDS011;53349;53.538;8.584;2022-08-21T10:47:34;4.67;;;1.10;;
66521;SDS011;53349;53.538;8.584;2022-08-21T10:55:16;3.42;;;1.10;;
66521;SDS011;53349;53.538;8.584;2022-08-21T10:57:57;5.07;;;1.20;;
66521;SDS011;53349;53.538;8.584;2022-08-21T11:00:33;5.77;;;1.37;;
66521;SDS011;53349;53.538;8.584;2022-08-21T11:08:18;5.25;;;1.40;;
66521;SDS011;53349;53.538;8.584;2022-08-21T11:10:50;6.18;;;1.50;;
66521;SDS011;53349;53.538;8.584;2022-08-21T11:13:21;5.37;;;1.80;;
66521;SDS011;53349;53.538;8.584;2022-08-21T11:15:56;5.65;;;1.60;;
66521;SDS011;53349;53.538;8.584;2022-08-21T11:18:41;4.78;;;1.60;;
66521;SDS011;53349;53.538;8.584;2022-08-21T11:26:25;5.70;;;1.53;;
66521;SDS011;53349;53.538;8.584;2022-08-21T11:29:17;6.85;;;1.55;;
66521;SDS011;53349;53.538;8.584;2022-08-21T11:34:30;3.38;;;1.20;;
66521;SDS011;53349;53.538;8.584;2022-08-21T11:48:10;3.80;;;1.38;;
66521;SDS011;53349;53.538;8.584;2022-08-21T11:50:38;4.75;;;1.35;;
66521;SDS011;53349;53.538;8.584;2022-08-21T11:58:17;6.03;;;1.52;;
66521;SDS011;53349;53.538;8.584;2022-08-21T12:00:56;5.07;;;1.50;;
66521;SDS011;53349;53.538;8.584;2022-08-21T12:03:26;4.85;;;1.70;;
66521;SDS011;53349;53.538;8.584;2022-08-21T12:05:58;4.43;;;1.70;;
66521;SDS011;53349;53.538;8.584;2022-08-21T12:08:31;5.70;;;1.70;;
66521;SDS011;53349;53.538;8.584;2022-08-21T12:13:56;6.30;;;2.15;;
66521;SDS011;53349;53.538;8.584;2022-08-21T12:16:40;4.32;;;1.25;;
66521;SDS011;53349;53.538;8.584;2022-08-21T12:19:09;3.40;;;1.53;;
66521;SDS011;53349;53.538;8.584;2022-08-21T12:26:57;3.70;;;1.40;;
66521;SDS011;53349;53.538;8.584;2022-08-21T12:29:46;8.93;;;5.35;;
66521;SDS011;53349;53.538;8.584;2022-08-21T12:34:46;3.73;;;1.37;;
66521;SDS011;53349;53.538;8.584;2022-08-21T12:37:30;4.40;;;1.40;;
66521;SDS011;53349;53.538;8.584;2022-08-21T12:40:09;5.57;;;1.60;;
66521;SDS011;53349;53.538;8.584;2022-08-21T12:42:59;4.57;;;1.40;;
66521;SDS011;53349;53.538;8.584;2022-08-21T12:50:43;3.33;;;1.58;;
66521;SDS011;53349;53.538;8.584;2022-08-21T12:53:40;2.85;;;1.10;;
66521;SDS011;53349;53.538;8.584;2022-08-21T12:56:21;3.67;;;1.00;;
66521;SDS011;53349;53.538;8.584;2022-08-21T12:58:49;6.30;;;1.30;;
66521;SDS011;53349;53.538;8.584;2022-08-21T13:03:51;4.13;;;1.23;;
66521;SDS011;53349;53.538;8.584;2022-08-21T13:06:22;3.67;;;1.08;;
66521;SDS011;53349;53.538;8.584;2022-08-21T13:08:49;2.80;;;0.90;;
66521;SDS011;53349;53.538;8.584;2022-08-21T13:11:21;3.13;;;1.10;;
66521;SDS011;53349;53.538;8.584;2022-08-21T13:13:49;3.43;;;1.10;;
66521;SDS011;53349;53.538;8.584;2022-08-21T13:16:20;3.30;;;1.08;;
66521;SDS011;53349;53.538;8.584;2022-08-21T13:18:56;4.95;;;1.40;;
66521;SDS011;53349;53.538;8.584;2022-08-21T13:21:42;6.07;;;1.30;;
66521;SDS011;53349;53.538;8.584;2022-08-21T13:24:22;5.75;;;1.13;;
66521;SDS011;53349;53.538;8.584;2022-08-21T13:26:50;3.70;;;1.10;;
66521;SDS011;53349;53.538;8.584;2022-08-21T13:29:17;4.85;;;1.10;;
66521;SDS011;53349;53.538;8.584;2022-08-21T13:31:51;3.03;;;1.10;;
66521;SDS011;53349;53.538;8.584;2022-08-21T13:34:19;3.97;;;1.20;;
66521;SDS011;53349;53.538;8.584;2022-08-21T13:36:48;4.47;;;1.20;;
66521;SDS011;53349;53.538;8.584;2022-08-21T13:39:19;3.92;;;1.00;;
66521;SDS011;53349;53.538;8.584;2022-08-21T13:41:47;4.97;;;1.27;;
66521;SDS011;53349;53.538;8.584;2022-08-21T13:44:16;5.00;;;1.27;;
66521;SDS011;53349;53.538;8.584;2022-08-21T13:46:44;4.72;;;1.20;;
66521;SDS011;53349;53.538;8.584;2022-08-21T13:49:12;3.57;;;1.10;;
66521;SDS011;53349;53.538;8.584;2022-08-21T13:51:40;4.20;;;1.00;;
66521;SDS011;53349;53.538;8.584;2022-08-21T13:57:00;7.30;;;1.08;;
66521;SDS011;53349;53.538;8.584;2022-08-21T13:59:29;3.70;;;1.08;;
66521;SDS011;53349;53.538;8.584;2022-08-21T14:02:08;6.17;;;1.70;;
66521;SDS011;53349;53.538;8.584;2022-08-21T14:05:26;5.15;;;1.90;;
66521;SDS011;53349;53.538;8.584;2022-08-21T14:07:37;5.22;;;1.40;;
66521;SDS011;53349;53.538;8.584;2022-08-21T14:10:07;8.27;;;6.82;;
66521;SDS011;53349;53.538;8.584;2022-08-21T14:12:53;5.32;;;3.53;;
66521;SDS011;53349;53.538;8.584;2022-08-21T14:15:25;4.53;;;1.70;;
66521;SDS011;53349;53.538;8.584;2022-08-21T14:17:53;3.97;;;2.00;;
66521;SDS011;53349;53.538;8.584;2022-08-21T14:20:33;3.88;;;1.52;;
66521;SDS011;53349;53.538;8.584;2022-08-21T14:23:03;3.38;;;1.27;;
66521;SDS011;53349;53.538;8.584;2022-08-21T14:25:30;5.30;;;1.83;;
66521;SDS011;53349;53.538;8.584;2022-08-21T14:30:40;5.07;;;1.20;;
66521;SDS011;53349;53.538;8.584;2022-08-21T14:33:11;2.83;;;1.00;;
66521;SDS011;53349;53.538;8.584;2022-08-21T14:35:38;4.55;;;1.55;;
66521;SDS011;53349;53.538;8.584;2022-08-21T14:38:17;8.25;;;2.95;;
66521;SDS011;53349;53.538;8.584;2022-08-21T14:40:47;13.63;;;5.73;;
66521;SDS011;53349;53.538;8.584;2022-08-21T14:43:15;14.77;;;5.82;;
66521;SDS011;53349;53.538;8.584;2022-08-21T14:45:40;8.88;;;4.20;;
66521;SDS011;53349;53.538;8.584;2022-08-21T14:48:06;10.43;;;3.10;;
66521;SDS011;53349;53.538;8.584;2022-08-21T14:50:32;11.70;;;5.20;;
66521;SDS011;53349;53.538;8.584;2022-08-21T14:52:58;14.20;;;5.60;;
66521;SDS011;53349;53.538;8.584;2022-08-21T14:55:24;19.40;;;11.38;;
66521;SDS011;53349;53.538;8.584;2022-08-21T14:57:51;12.57;;;6.28;;
66521;SDS011;53349;53.538;8.584;2022-08-21T15:00:19;10.37;;;4.60;;
66521;SDS011;53349;53.538;8.584;2022-08-21T15:02:50;12.50;;;4.18;;
66521;SDS011;53349;53.538;8.584;2022-08-21T15:05:16;16.63;;;8.15;;
66521;SDS011;53349;53.538;8.584;2022-08-21T15:07:41;7.97;;;2.90;;
66521;SDS011;53349;53.538;8.584;2022-08-21T15:10:07;29.27;;;15.50;;
66521;SDS011;53349;53.538;8.584;2022-08-21T15:12:34;12.85;;;6.00;;
66521;SDS011;53349;53.538;8.584;2022-08-21T15:14:59;8.48;;;3.70;;
66521;SDS011;53349;53.538;8.584;2022-08-21T15:17:25;6.43;;;2.50;;
66521;SDS011;53349;53.538;8.584;2022-08-21T15:19:51;8.67;;;2.50;;
66521;SDS011;53349;53.538;8.584;2022-08-21T15:22:16;8.80;;;3.40;;
66521;SDS011;53349;53.538;8.584;2022-08-21T15:24:42;8.07;;;3.07;;
66521;SDS011;53349;53.538;8.584;2022-08-21T15:27:07;7.67;;;3.40;;
66521;SDS011;53349;53.538;8.584;2022-08-21T15:29:34;6.28;;;2.80;;
66521;SDS011;53349;53.538;8.584;2022-08-21T15:32:02;8.57;;;2.67;;
66521;SDS011;53349;53.538;8.584;2022-08-21T15:34:40;7.10;;;2.67;;
66521;SDS011;53349;53.538;8.584;2022-08-21T15:37:06;8.27;;;2.70;;
66521;SDS011;53349;53.538;8.584;2022-08-21T15:39:33;9.37;;;2.73;;
66521;SDS011;53349;53.538;8.584;2022-08-21T15:42:00;6.50;;;2.70;;
66521;SDS011;53349;53.538;8.584;2022-08-21T15:44:26;9.57;;;2.92;;
66521;SDS011;53349;53.538;8.584;2022-08-21T15:46:52;9.65;;;2.80;;
66521;SDS011;53349;53.538;8.584;2022-08-21T15:49:18;10.83;;;3.20;;
66521;SDS011;53349;53.538;8.584;2022-08-21T15:51:43;8.87;;;2.90;;
66521;SDS011;53349;53.538;8.584;2022-08-21T15:54:09;7.07;;;2.30;;
66521;SDS011;53349;53.538;8.584;2022-08-21T15:56:36;10.30;;;2.88;;
66521;SDS011;53349;53.538;8.584;2022-08-21T15:59:09;6.17;;;2.70;;
66521;SDS011;53349;53.538;8.584;2022-08-21T16:01:38;7.30;;;2.38;;
66521;SDS011;53349;53.538;8.584;2022-08-21T16:04:04;9.27;;;2.80;;
66521;SDS011;53349;53.538;8.584;2022-08-21T16:06:32;10.07;;;3.35;;
66521;SDS011;53349;53.538;8.584;2022-08-21T16:08:58;8.40;;;2.60;;
66521;SDS011;53349;53.538;8.584;2022-08-21T16:11:24;7.93;;;2.60;;
66521;SDS011;53349;53.538;8.584;2022-08-21T16:13:50;10.60;;;2.40;;
66521;SDS011;53349;53.538;8.584;2022-08-21T16:16:16;9.38;;;2.72;;
66521;SDS011;53349;53.538;8.584;2022-08-21T16:18:44;11.98;;;4.35;;
66521;SDS011;53349;53.538;8.584;2022-08-21T16:21:10;9.17;;;4.27;;
66521;SDS011;53349;53.538;8.584;2022-08-21T16:23:36;10.05;;;4.25;;
66521;SDS011;53349;53.538;8.584;2022-08-21T16:26:03;8.65;;;4.10;;
66521;SDS011;53349;53.538;8.584;2022-08-21T16:28:30;8.25;;;3.40;;
66521;SDS011;53349;53.538;8.584;2022-08-21T16:30:58;8.13;;;3.20;;